Time;durP1;ratioP1;P1;durP2;ratioP2;P2;SDS_P1;SDS_P2;PMS_P1;PMS_P2;Temp;Humidity;BMP_temperature;BMP_pressure;BME280_temperature;BME280_humidity;BME280_pressure;Samples;Min_cycle;Max_cycle;Signal;HPM_P1;HPM_P2
2023/03/09 00:00:22;;;;;;;8.90;4.28;;;2.40;98.40;;;;;;5057085;28;20488;-73
2023/03/09 00:03:15;;;;;;;10.23;4.13;;;1.90;98.10;;;;;;5073736;28;20044;-73
2023/03/09 00:05:58;;;;;;;11.52;3.95;;;1.80;97.80;;;;;;5040934;28;20049;-73
2023/03/09 00:08:33;;;;;;;11.68;4.32;;;1.80;97.40;;;;;;5056769;28;20041;-73
2023/03/09 00:11:18;;;;;;;8.43;3.53;;;1.80;97.50;;;;;;5042652;28;20044;-73
2023/03/09 00:14:11;;;;;;;6.68;3.30;;;1.90;97.30;;;;;;5039083;28;20504;-73
2023/03/09 00:16:53;;;;;;;10.73;4.50;;;1.80;97.50;;;;;;5038104;28;20037;-73
2023/03/09 00:19:30;;;;;;;8.43;4.32;;;1.80;98.00;;;;;;5056511;28;20045;-72
2023/03/09 00:22:02;;;;;;;7.20;3.80;;;1.90;98.20;;;;;;5072857;28;20059;-72
2023/03/09 00:24:45;;;;;;;10.82;4.97;;;1.80;98.60;;;;;;5056717;28;20127;-72
2023/03/09 00:27:15;;;;;;;9.85;5.07;;;1.80;98.60;;;;;;5055603;28;20500;-73
2023/03/09 00:30:13;;;;;;;10.15;4.75;;;1.70;98.60;;;;;;5040032;28;20072;-72
2023/03/09 00:32:48;;;;;;;10.32;4.70;;;1.70;98.80;;;;;;5040678;28;20463;-72
2023/03/09 00:35:34;;;;;;;8.55;3.92;;;1.70;99.40;;;;;;5057618;28;20109;-73
2023/03/09 00:38:20;;;;;;;9.82;4.40;;;1.70;99.90;;;;;;5058131;28;20407;-73
2023/03/09 00:40:49;;;;;;;9.93;4.50;;;1.70;99.90;;;;;;5049494;28;20052;-72
2023/03/09 00:43:35;;;;;;;10.98;4.57;;;1.70;99.90;;;;;;5061846;28;20047;-73
2023/03/09 00:46:04;;;;;;;9.07;4.13;;;1.60;99.90;;;;;;5062981;28;20496;-72
2023/03/09 00:48:50;;;;;;;7.93;3.55;;;1.60;99.90;;;;;;5062435;28;20537;-73
2023/03/09 00:51:20;;;;;;;10.05;4.28;;;1.60;99.90;;;;;;5062953;28;20098;-72
2023/03/09 00:54:03;;;;;;;9.70;4.55;;;1.60;99.90;;;;;;5095312;28;20097;-73
2023/03/09 00:57:02;;;;;;;9.25;4.60;;;1.60;99.90;;;;;;5060868;28;20062;-73
2023/03/09 00:59:44;;;;;;;9.52;4.65;;;1.60;99.90;;;;;;5055302;28;20056;-72
2023/03/09 01:02:13;;;;;;;10.18;4.72;;;1.60;99.90;;;;;;5076738;28;20036;-73
2023/03/09 01:04:42;;;;;;;7.75;4.20;;;1.60;99.90;;;;;;5076137;28;20098;-72
2023/03/09 01:07:08;;;;;;;6.93;3.83;;;1.60;99.90;;;;;;5060372;28;20085;-73
2023/03/09 01:09:52;;;;;;;8.43;3.88;;;1.60;99.90;;;;;;5076849;28;20040;-73
2023/03/09 01:12:20;;;;;;;9.70;4.28;;;1.60;99.90;;;;;;5060291;28;20039;-72
2023/03/09 01:15:08;;;;;;;9.05;4.18;;;1.60;99.90;;;;;;5060103;28;20109;-72
2023/03/09 01:17:39;;;;;;;9.60;4.20;;;1.60;99.90;;;;;;5059434;28;20052;-73
2023/03/09 01:20:26;;;;;;;;;;;1.60;99.90;;;;;;5076490;28;20469;-73
2023/03/09 01:22:52;;;;;;;9.32;3.95;;;1.50;99.90;;;;;;5076329;28;20408;-73
2023/03/09 01:25:20;;;;;;;7.80;3.78;;;1.50;99.90;;;;;;5075946;28;20073;-72
2023/03/09 01:27:56;;;;;;;10.55;4.72;;;1.50;99.90;;;;;;5076152;28;20040;-73
2023/03/09 01:30:31;;;;;;;9.95;3.60;;;1.50;99.90;;;;;;5059242;28;20042;-73
2023/03/09 01:33:03;;;;;;;10.40;3.85;;;1.50;99.90;;;;;;5075934;28;20047;-73
2023/03/09 01:35:29;;;;;;;6.97;3.28;;;1.50;99.90;;;;;;5056711;28;20039;-73
2023/03/09 01:37:58;;;;;;;6.55;3.72;;;1.40;99.90;;;;;;5059640;28;20039;-72
2023/03/09 01:40:31;;;;;;;8.75;3.88;;;1.40;99.90;;;;;;5072220;28;20063;-73
2023/03/09 01:43:18;;;;;;;7.72;3.55;;;1.40;99.90;;;;;;5055181;28;20143;-73
2023/03/09 01:46:15;;;;;;;9.55;4.03;;;1.40;99.90;;;;;;5055528;28;20040;-74
2023/03/09 01:48:49;;;;;;;10.68;3.78;;;1.40;99.90;;;;;;5072200;28;20094;-72
2023/03/09 01:55:38;;;;;;;9.60;4.15;;;1.40;99.90;;;;;;5039901;28;20182;-73
2023/03/09 01:58:16;;;;;;;10.85;3.78;;;1.40;99.90;;;;;;5055405;28;20562;-73
2023/03/09 02:01:01;;;;;;;6.68;3.75;;;1.30;99.90;;;;;;5038576;28;20044;-73
2023/03/09 02:03:52;;;;;;;7.22;3.35;;;1.30;99.90;;;;;;5055402;28;20044;-72
2023/03/09 02:06:41;;;;;;;10.38;3.60;;;1.30;99.90;;;;;;5055586;28;20068;-73
2023/03/09 02:09:40;;;;;;;6.60;3.35;;;1.30;99.90;;;;;;5055503;28;20059;-73
2023/03/09 02:12:14;;;;;;;7.97;3.55;;;1.30;99.90;;;;;;4978402;28;20092;-73
2023/03/09 02:15:02;;;;;;;8.05;3.10;;;1.20;99.90;;;;;;5039473;28;20115;-73
2023/03/09 02:17:34;;;;;;;8.38;3.20;;;1.20;99.90;;;;;;5055148;28;20037;-73
2023/03/09 02:20:19;;;;;;;6.95;3.63;;;1.20;99.90;;;;;;5038286;28;20051;-73
2023/03/09 02:22:57;;;;;;;5.82;3.05;;;1.20;99.90;;;;;;5038423;28;20497;-73
2023/03/09 02:25:49;;;;;;;4.93;2.77;;;1.10;99.90;;;;;;5055155;28;20040;-73
2023/03/09 02:28:18;;;;;;;9.60;3.72;;;1.10;99.90;;;;;;5055227;28;20286;-74
2023/03/09 02:33:47;;;;;;;5.70;3.20;;;1.10;99.90;;;;;;5051977;28;20044;-72
2023/03/09 02:36:23;;;;;;;5.38;3.10;;;1.10;99.90;;;;;;5055308;28;20040;-71
2023/03/09 02:38:52;;;;;;;5.55;2.60;;;1.10;99.90;;;;;;5042361;28;20051;-73
2023/03/09 02:41:19;;;;;;;6.57;2.58;;;1.10;99.90;;;;;;5060098;28;20052;-73
2023/03/09 02:44:03;;;;;;;6.25;3.55;;;1.10;99.90;;;;;;5042016;28;20036;-72
2023/03/09 02:46:54;;;;;;;5.88;2.90;;;1.10;99.90;;;;;;5058470;28;20181;-74
2023/03/09 02:49:20;;;;;;;7.40;3.42;;;1.10;99.90;;;;;;5074328;28;20044;-73
2023/03/09 02:51:58;;;;;;;6.57;3.20;;;2.00;99.90;;;;;;5058551;28;20086;-73
2023/03/09 02:54:39;;;;;;;7.35;2.88;;;1.10;99.90;;;;;;5058713;28;20132;-73
2023/03/09 02:57:08;;;;;;;6.80;3.40;;;1.10;99.90;;;;;;5026646;28;20045;-73
2023/03/09 02:59:52;;;;;;;6.70;3.42;;;1.10;99.90;;;;;;5058252;28;20055;-73
2023/03/09 03:02:19;;;;;;;6.60;3.42;;;1.10;99.90;;;;;;5058124;28;20048;-74
2023/03/09 03:05:20;;;;;;;5.88;3.33;;;1.10;99.90;;;;;;5041475;28;20044;-73
2023/03/09 03:07:52;;;;;;;4.95;3.08;;;1.10;99.90;;;;;;5058383;28;20399;-73
2023/03/09 03:10:19;;;;;;;7.32;3.33;;;1.10;99.90;;;;;;5041679;28;20438;-73
2023/03/09 03:13:05;;;;;;;12.88;3.88;;;1.10;99.90;;;;;;5058334;28;20041;-73
2023/03/09 03:15:31;;;;;;;10.05;3.70;;;1.10;99.90;;;;;;5058030;28;20094;-73
2023/03/09 03:18:00;;;;;;;8.40;3.90;;;1.10;99.90;;;;;;5041265;28;20045;-73
2023/03/09 03:20:26;;;;;;;6.63;3.47;;;1.10;99.90;;;;;;5057934;28;20637;-73
2023/03/09 03:23:05;;;;;;;9.13;3.88;;;1.10;99.90;;;;;;5057627;28;20039;-73
2023/03/09 03:25:31;;;;;;;7.88;3.58;;;1.10;99.90;;;;;;5057655;28;20044;-73
2023/03/09 03:28:08;;;;;;;7.70;3.83;;;1.10;99.90;;;;;;5041133;28;20496;-73
2023/03/09 03:30:50;;;;;;;9.90;4.03;;;1.10;99.90;;;;;;5057892;28;20134;-73
2023/03/09 03:33:28;;;;;;;10.25;4.28;;;1.20;99.90;;;;;;5041174;28;20407;-73
2023/03/09 03:36:11;;;;;;;9.23;4.25;;;1.10;99.90;;;;;;5061391;28;20044;-74
2023/03/09 03:38:37;;;;;;;6.95;4.13;;;1.10;99.90;;;;;;5057595;28;20047;-74
2023/03/09 03:41:05;;;;;;;8.80;3.95;;;1.10;99.90;;;;;;5067563;28;20079;-73
2023/03/09 03:43:36;;;;;;;10.15;4.07;;;1.30;99.90;;;;;;5057585;28;20395;-74
2023/03/09 03:46:15;;;;;;;10.02;4.10;;;1.10;99.90;;;;;;5041634;28;20044;-73
2023/03/09 03:49:13;;;;;;;9.57;4.05;;;1.10;99.90;;;;;;5057070;28;20040;-73
2023/03/09 03:51:39;;;;;;;9.85;4.25;;;1.10;99.90;;;;;;5050994;28;20052;-74
2023/03/09 03:54:22;;;;;;;11.07;4.75;;;1.10;99.90;;;;;;5057076;28;20086;-74
2023/03/09 03:56:52;;;;;;;10.32;4.57;;;1.10;99.90;;;;;;5057423;28;20506;-73
2023/03/09 03:59:26;;;;;;;9.50;4.93;;;1.10;99.90;;;;;;5057176;28;20040;-74
2023/03/09 04:02:27;;;;;;;7.88;4.65;;;1.10;99.90;;;;;;5040368;28;20040;-73
2023/03/09 04:04:59;;;;;;;9.95;5.30;;;1.10;99.90;;;;;;5040989;28;20040;-74
2023/03/09 04:07:27;;;;;;;10.43;4.78;;;1.10;99.90;;;;;;5057517;28;20567;-74
2023/03/09 04:10:06;;;;;;;10.27;4.78;;;1.10;99.90;;;;;;5056264;28;20052;-73
2023/03/09 04:12:32;;;;;;;9.57;4.65;;;1.10;99.90;;;;;;5056764;28;20040;-74
2023/03/09 04:15:13;;;;;;;12.73;5.25;;;1.10;99.90;;;;;;5040815;28;20059;-74
2023/03/09 04:17:48;;;;;;;10.70;5.13;;;1.20;99.90;;;;;;5073257;28;20040;-74
2023/03/09 04:20:18;;;;;;;9.77;5.22;;;1.10;99.90;;;;;;5056482;28;20407;-74
2023/03/09 04:23:13;;;;;;;9.98;4.80;;;1.10;99.90;;;;;;5073294;28;20040;-74
2023/03/09 04:26:13;;;;;;;12.25;5.22;;;1.10;99.90;;;;;;5041360;28;20043;-73
2023/03/09 04:28:47;;;;;;;8.75;4.90;;;1.90;99.90;;;;;;5056696;28;20029;-73
2023/03/09 04:31:16;;;;;;;9.90;4.25;;;1.10;99.90;;;;;;5056422;28;20055;-72
2023/03/09 04:33:42;;;;;;;13.65;5.93;;;1.10;99.90;;;;;;5056248;28;20093;-72
2023/03/09 04:36:30;;;;;;;16.65;6.40;;;1.10;99.90;;;;;;5056341;28;20080;-75
2023/03/09 04:39:24;;;;;;;11.90;5.50;;;1.10;99.90;;;;;;5039012;28;20399;-72
2023/03/09 04:41:51;;;;;;;13.45;5.95;;;1.10;99.90;;;;;;5059837;28;20475;-73
2023/03/09 04:44:29;;;;;;;13.55;4.97;;;1.10;99.90;;;;;;5059383;28;20084;-74
2023/03/09 04:47:14;;;;;;;11.57;5.60;;;1.10;99.90;;;;;;5060034;28;20086;-73
2023/03/09 04:49:53;;;;;;;12.30;5.85;;;1.20;99.90;;;;;;5059342;28;20040;-73
2023/03/09 04:52:49;;;;;;;14.23;5.28;;;1.10;99.90;;;;;;5075832;28;20048;-73
2023/03/09 04:55:21;;;;;;;12.23;5.72;;;1.10;99.90;;;;;;5075930;28;20093;-73
2023/03/09 04:57:47;;;;;;;12.05;5.10;;;1.10;99.90;;;;;;5075776;28;20119;-73
2023/03/09 05:00:13;;;;;;;13.85;5.32;;;1.80;99.90;;;;;;5058602;28;20132;-72
2023/03/09 05:02:45;;;;;;;14.48;5.55;;;1.10;99.90;;;;;;5058776;28;20044;-73
2023/03/09 05:05:32;;;;;;;10.43;4.85;;;1.10;99.90;;;;;;5059380;28;20032;-73
2023/03/09 05:07:58;;;;;;;14.35;5.63;;;1.10;99.90;;;;;;5059108;28;20043;-73
2023/03/09 05:10:42;;;;;;;8.35;4.60;;;1.10;99.90;;;;;;5075627;28;20480;-73
2023/03/09 05:13:33;;;;;;;11.05;5.15;;;1.10;99.90;;;;;;5059492;28;20048;-73
2023/03/09 05:16:03;;;;;;;12.80;5.10;;;1.10;99.90;;;;;;5058791;28;20040;-73
2023/03/09 05:19:02;;;;;;;14.18;5.55;;;1.10;99.90;;;;;;5059579;28;20511;-73
2023/03/09 05:21:40;;;;;;;12.85;6.32;;;1.00;99.90;;;;;;5070060;28;20043;-73
2023/03/09 05:24:12;;;;;;;14.02;5.50;;;1.00;99.90;;;;;;5076958;28;20052;-73
2023/03/09 05:27:22;;;;;;;12.48;5.20;;;1.10;99.90;;;;;;5058657;28;20044;-73
2023/03/09 05:29:51;;;;;;;10.32;4.75;;;1.00;99.90;;;;;;5074738;28;20455;-73
2023/03/09 05:32:37;;;;;;;13.13;4.80;;;1.00;99.90;;;;;;5075267;28;20044;-73
2023/03/09 05:35:52;;;;;;;;;;;;;;;;;;;;;
2023/03/09 05:39:19;;;;;;;9.23;4.43;;;1.00;99.90;;;;;;5090545;28;20119;-72
2023/03/09 05:41:44;;;;;;;9.30;4.50;;;1.00;99.90;;;;;;5043313;28;20515;-72
2023/03/09 05:44:19;;;;;;;12.15;4.65;;;1.00;99.90;;;;;;5055303;28;20059;-75
2023/03/09 05:46:48;;;;;;;11.02;4.35;;;1.30;99.90;;;;;;5055293;28;20032;-75
2023/03/09 05:49:16;;;;;;;11.75;5.43;;;0.90;99.90;;;;;;5054909;28;20048;-73
2023/03/09 05:51:42;;;;;;;14.05;5.78;;;0.90;99.90;;;;;;5054945;28;20492;-74
2023/03/09 05:54:11;;;;;;;11.20;4.93;;;1.00;99.90;;;;;;5055243;28;20072;-74
2023/03/09 05:56:40;;;;;;;12.60;5.13;;;0.90;99.90;;;;;;5038918;28;20032;-74
2023/03/09 05:59:29;;;;;;;7.75;4.32;;;0.90;99.90;;;;;;5054482;28;20055;-72
2023/03/09 06:01:58;;;;;;;11.32;5.60;;;1.00;99.90;;;;;;5036273;28;20135;-72
2023/03/09 06:04:29;;;;;;;13.07;5.22;;;1.00;99.90;;;;;;5054770;28;20040;-72
2023/03/09 06:06:58;;;;;;;;;;;1.00;99.90;;;;;;5038530;28;20037;-72
2023/03/09 06:09:25;;;;;;;9.80;4.15;;;2.30;99.90;;;;;;5054676;28;19916;-72
2023/03/09 06:11:54;;;;;;;10.32;4.10;;;2.30;99.90;;;;;;5056419;28;20040;-72
2023/03/09 06:14:19;;;;;;;11.32;5.22;;;0.90;99.90;;;;;;5058827;28;20047;-72
2023/03/09 06:16:48;;;;;;;6.82;3.78;;;1.00;99.90;;;;;;5059007;28;20029;-73
2023/03/09 06:19:14;;;;;;;9.85;4.70;;;1.00;99.90;;;;;;5059044;28;20076;-73
2023/03/09 06:21:39;;;;;;;9.85;4.70;;;1.00;99.90;;;;;;5058617;28;20087;-72
2023/03/09 06:24:09;;;;;;;9.32;4.10;;;1.00;99.90;;;;;;5058661;28;20143;-72
2023/03/09 06:26:35;;;;;;;13.10;5.32;;;1.00;99.90;;;;;;5058677;28;20067;-72
2023/03/09 06:29:03;;;;;;;10.20;4.80;;;1.10;99.90;;;;;;5058838;28;20079;-72
2023/03/09 06:31:31;;;;;;;12.63;4.40;;;1.10;99.90;;;;;;5058852;28;20127;-72
2023/03/09 06:34:31;;;;;;;12.18;4.72;;;1.10;99.90;;;;;;5058779;28;20036;-72
2023/03/09 06:37:00;;;;;;;8.52;4.65;;;1.20;99.90;;;;;;5042357;28;20048;-72
2023/03/09 06:39:28;;;;;;;7.68;4.53;;;1.20;99.90;;;;;;5058308;28;20097;-73
2023/03/09 06:41:54;;;;;;;11.57;5.22;;;1.20;99.90;;;;;;5078336;28;20040;-72
2023/03/09 06:44:20;;;;;;;9.63;5.00;;;1.10;99.90;;;;;;5078310;28;20065;-73
2023/03/09 06:46:48;;;;;;;8.85;3.95;;;1.20;99.90;;;;;;5062155;28;20036;-73
2023/03/09 06:49:14;;;;;;;12.23;5.90;;;1.20;99.90;;;;;;5078237;28;20069;-73
2023/03/09 06:51:40;;;;;;;12.35;5.20;;;1.20;99.90;;;;;;5078209;28;20036;-72
2023/03/09 06:54:08;;;;;;;10.38;5.10;;;1.20;99.90;;;;;;5077994;28;20054;-72
2023/03/09 06:56:34;;;;;;;9.07;4.88;;;1.20;99.90;;;;;;5078207;28;20496;-72
2023/03/09 06:59:03;;;;;;;11.65;5.07;;;1.30;99.90;;;;;;5078013;28;20131;-72
2023/03/09 07:01:28;;;;;;;9.60;4.75;;;1.30;99.90;;;;;;5077799;28;20097;-72
2023/03/09 07:03:54;;;;;;;22.25;5.70;;;1.30;99.90;;;;;;5077971;28;20036;-72
2023/03/09 07:06:33;;;;;;;11.07;4.85;;;1.30;99.90;;;;;;5077866;28;20036;-72
2023/03/09 07:08:59;;;;;;;8.43;5.03;;;1.40;99.90;;;;;;5059761;28;20047;-72
2023/03/09 07:11:25;;;;;;;10.38;5.65;;;1.40;99.90;;;;;;5077861;28;20036;-74
2023/03/09 07:13:53;;;;;;;15.32;5.63;;;1.40;99.90;;;;;;5078135;28;20144;-75
2023/03/09 07:16:24;;;;;;;11.48;5.60;;;1.50;99.90;;;;;;5077997;28;20510;-73
2023/03/09 07:22:02;;;;;;;;;;;1.60;99.90;;;;;;5029100;28;20044;-77
2023/03/09 07:24:38;;;;;;;9.63;5.00;;;1.70;99.90;;;;;;5077737;28;20073;-73
2023/03/09 07:27:13;;;;;;;9.63;4.43;;;1.60;99.90;;;;;;5060932;28;20077;-73
2023/03/09 07:29:42;;;;;;;11.43;5.18;;;1.60;99.90;;;;;;5061153;28;20032;-73
2023/03/09 07:32:08;;;;;;;11.32;5.13;;;1.70;99.90;;;;;;5077502;28;20040;-73
2023/03/09 07:34:58;;;;;;;11.25;5.10;;;1.70;99.90;;;;;;5079572;28;20507;-72
2023/03/09 07:37:27;;;;;;;12.15;6.13;;;1.70;99.90;;;;;;5077369;28;20036;-73
2023/03/09 07:39:58;;;;;;;10.65;4.53;;;1.70;99.90;;;;;;5056962;28;20199;-73
2023/03/09 07:42:27;;;;;;;8.63;4.32;;;1.70;99.90;;;;;;5074004;28;20094;-73
2023/03/09 07:44:53;;;;;;;13.07;5.65;;;1.70;99.90;;;;;;5073932;28;20403;-73
2023/03/09 07:47:18;;;;;;;12.88;5.32;;;1.60;99.90;;;;;;5074138;28;20123;-72
2023/03/09 07:49:55;;;;;;;11.13;4.93;;;1.70;99.90;;;;;;5074097;28;20051;-73
2023/03/09 07:52:30;;;;;;;11.20;5.20;;;1.70;99.90;;;;;;5058113;28;20495;-73
2023/03/09 07:55:02;;;;;;;12.25;4.93;;;1.90;99.90;;;;;;5073722;28;20039;-73
2023/03/09 07:57:33;;;;;;;10.30;4.68;;;2.10;99.90;;;;;;5073890;28;20119;-73
2023/03/09 08:00:00;;;;;;;13.55;5.25;;;2.40;99.90;;;;;;5073429;28;20412;-73
2023/03/09 08:02:32;;;;;;;10.73;4.68;;;2.20;99.90;;;;;;5056896;28;20079;-73
2023/03/09 08:04:58;;;;;;;14.82;5.32;;;2.30;99.90;;;;;;5090344;28;20036;-73
2023/03/09 08:07:26;;;;;;;8.20;4.13;;;2.40;99.90;;;;;;5073501;28;20447;-73
2023/03/09 08:09:52;;;;;;;11.15;5.43;;;2.40;99.90;;;;;;5073404;28;20075;-73
2023/03/09 08:12:18;;;;;;;15.55;5.95;;;2.40;99.90;;;;;;5056440;28;20072;-73
2023/03/09 08:14:53;;;;;;;8.57;4.55;;;2.50;99.90;;;;;;5090171;28;20048;-73
2023/03/09 08:17:24;;;;;;;7.45;4.07;;;2.50;99.90;;;;;;5090404;28;20123;-73
2023/03/09 08:19:53;;;;;;;8.55;4.47;;;2.50;99.90;;;;;;5056853;28;20040;-73
2023/03/09 08:22:25;;;;;;;10.05;4.93;;;2.60;99.90;;;;;;5090028;28;20033;-73
2023/03/09 08:25:07;;;;;;;8.63;4.65;;;2.60;99.90;;;;;;5056624;28;20044;-73
2023/03/09 08:27:42;;;;;;;9.70;4.50;;;2.60;99.90;;;;;;5073245;28;20492;-73
2023/03/09 08:30:13;;;;;;;11.10;4.25;;;2.50;99.90;;;;;;5073298;28;20044;-72
2023/03/09 08:32:44;;;;;;;;;;;2.60;99.90;;;;;;5073446;28;20036;-72
2023/03/09 08:35:11;;;;;;;7.95;4.10;;;2.50;99.90;;;;;;5055444;28;19916;-73
2023/03/09 08:37:58;;;;;;;8.48;4.70;;;2.60;99.90;;;;;;5073670;28;20036;-73
2023/03/09 08:40:27;;;;;;;13.02;4.22;;;2.60;99.90;;;;;;5072630;28;20048;-72
2023/03/09 08:42:53;;;;;;;8.88;4.70;;;2.60;99.90;;;;;;5056128;28;20123;-72
2023/03/09 08:45:23;;;;;;;8.63;4.55;;;2.70;99.90;;;;;;5056205;28;20059;-72
2023/03/09 08:47:51;;;;;;;7.95;4.35;;;2.70;99.90;;;;;;5039670;28;20036;-72
2023/03/09 08:50:46;;;;;;;8.30;4.18;;;2.80;99.90;;;;;;5035609;28;20186;-72
2023/03/09 08:53:12;;;;;;;10.48;5.15;;;2.70;99.90;;;;;;5039338;28;20051;-72
2023/03/09 08:55:38;;;;;;;8.50;4.53;;;2.70;99.90;;;;;;5039162;28;20040;-72
2023/03/09 08:58:07;;;;;;;11.65;5.13;;;2.70;99.60;;;;;;5056086;28;20047;-72
2023/03/09 09:00:33;;;;;;;7.25;4.30;;;2.80;99.40;;;;;;5055820;28;20048;-72
2023/03/09 09:03:01;;;;;;;8.65;4.75;;;5.00;99.20;;;;;;5055656;28;20040;-72
2023/03/09 09:05:27;;;;;;;9.07;4.30;;;2.80;97.80;;;;;;5055718;28;20036;-72
2023/03/09 09:07:54;;;;;;;8.38;4.68;;;2.80;98.10;;;;;;5039311;28;20076;-73
2023/03/09 09:10:23;;;;;;;7.32;4.32;;;2.80;99.00;;;;;;5039941;28;20051;-72
2023/03/09 09:12:48;;;;;;;13.55;4.70;;;2.80;98.70;;;;;;5038920;28;20040;-72
2023/03/09 09:15:23;;;;;;;8.90;4.80;;;2.80;99.30;;;;;;5055671;28;20046;-72
2023/03/09 09:17:48;;;;;;;10.07;4.20;;;2.90;98.20;;;;;;5055645;28;20044;-72
2023/03/09 09:20:28;;;;;;;7.55;4.55;;;2.80;97.90;;;;;;5055536;28;20048;-72
2023/03/09 09:22:58;;;;;;;;;;;2.80;97.70;;;;;;5072481;28;20080;-73
2023/03/09 09:25:34;;;;;;;7.50;4.30;;;2.40;96.10;;;;;;5055566;28;20017;-72
2023/03/09 09:28:03;;;;;;;8.23;3.72;;;2.80;94.60;;;;;;5054970;28;20547;-73
2023/03/09 09:31:23;;;;;;;9.85;4.45;;;2.70;94.60;;;;;;5071919;28;20111;-72
2023/03/09 09:33:48;;;;;;;8.40;4.15;;;2.80;95.20;;;;;;5055026;28;20045;-72
2023/03/09 09:36:19;;;;;;;11.57;5.07;;;4.30;95.10;;;;;;5055425;28;20377;-72
2023/03/09 09:38:48;;;;;;;12.88;4.97;;;2.80;95.60;;;;;;5055116;28;20044;-72
2023/03/09 09:41:32;;;;;;;7.95;4.50;;;2.80;95.80;;;;;;5064276;28;20107;-72
2023/03/09 09:44:07;;;;;;;11.13;4.70;;;2.90;96.70;;;;;;5071745;28;20111;-72
2023/03/09 09:46:41;;;;;;;8.18;4.80;;;3.00;97.70;;;;;;5055151;28;20488;-73
2023/03/09 09:49:19;;;;;;;10.02;5.13;;;3.10;96.70;;;;;;5072019;28;20054;-73
2023/03/09 09:52:03;;;;;;;9.90;4.72;;;3.20;95.80;;;;;;5072437;28;20080;-73
2023/03/09 09:54:42;;;;;;;8.27;4.05;;;3.00;95.30;;;;;;5071885;28;20517;-73
2023/03/09 09:57:32;;;;;;;8.73;4.75;;;3.20;94.20;;;;;;5071914;28;20056;-73
2023/03/09 10:00:00;;;;;;;11.57;5.03;;;3.30;90.70;;;;;;5071728;28;20492;-73
2023/03/09 10:02:45;;;;;;;7.72;4.10;;;2.70;90.40;;;;;;5071642;28;20043;-73
2023/03/09 10:05:38;;;;;;;9.80;4.82;;;3.30;87.80;;;;;;5071494;28;20131;-73
2023/03/09 10:08:41;;;;;;;10.77;5.13;;;3.90;89.70;;;;;;5082865;28;20045;-73
2023/03/09 10:11:41;;;;;;;9.40;4.53;;;3.50;85.50;;;;;;5071410;28;20045;-73
2023/03/09 10:14:43;;;;;;;8.95;4.60;;;3.60;85.20;;;;;;5088551;28;20059;-73
2023/03/09 10:17:26;;;;;;;7.82;4.25;;;3.60;81.70;;;;;;5071736;28;20044;-73
2023/03/09 10:20:44;;;;;;;10.70;4.43;;;3.60;78.70;;;;;;5086808;28;20032;-73
2023/03/09 10:23:28;;;;;;;10.30;4.40;;;3.60;74.70;;;;;;5071238;28;20079;-73
2023/03/09 10:26:25;;;;;;;8.35;4.68;;;3.60;72.60;;;;;;5071668;28;20098;-73
2023/03/09 10:29:16;;;;;;;10.48;4.20;;;3.60;73.00;;;;;;5071275;28;20036;-72
2023/03/09 10:32:05;;;;;;;6.78;3.72;;;3.60;71.00;;;;;;5071600;28;20131;-72
2023/03/09 10:35:04;;;;;;;11.10;4.15;;;3.50;68.60;;;;;;5071284;28;20049;-72
2023/03/09 10:37:37;;;;;;;8.52;4.45;;;3.60;73.90;;;;;;5055221;28;20547;-73
2023/03/09 10:40:15;;;;;;;7.85;3.95;;;3.70;75.60;;;;;;5090622;28;20139;-72
2023/03/09 10:43:05;;;;;;;8.75;4.55;;;3.90;79.20;;;;;;5074820;28;20033;-73
2023/03/09 10:45:32;;;;;;;12.30;4.03;;;4.00;79.70;;;;;;5074527;28;20050;-73
2023/03/09 10:48:26;;;;;;;7.82;4.35;;;4.40;86.20;;;;;;5074353;28;20032;-72
2023/03/09 10:51:02;;;;;;;8.52;4.75;;;4.10;70.90;;;;;;5074674;28;20368;-72
2023/03/09 10:54:01;;;;;;;10.57;4.95;;;4.00;79.70;;;;;;5074406;28;20048;-73
2023/03/09 10:56:28;;;;;;;10.80;4.70;;;;;;;;;;5057980;28;20044;-73
2023/03/09 10:59:23;;;;;;;11.48;4.75;;;3.90;53.80;;;;;;5077526;28;20086;-73
2023/03/09 11:01:59;;;;;;;11.48;5.35;;;4.00;58.70;;;;;;5061385;28;20043;-74
2023/03/09 11:04:37;;;;;;;10.77;4.05;;;4.00;57.40;;;;;;5095356;28;20106;-74
2023/03/09 11:07:25;;;;;;;7.15;4.50;;;4.10;59.90;;;;;;5076952;28;20040;-74
2023/03/09 11:09:54;;;;;;;9.73;4.18;;;4.00;47.50;;;;;;5078568;28;20050;-72
2023/03/09 11:12:35;;;;;;;7.45;4.13;;;4.10;48.00;;;;;;5078387;28;20566;-72
2023/03/09 11:15:13;;;;;;;;;;;4.20;54.30;;;;;;5078572;28;20040;-74
2023/03/09 11:18:19;;;;;;;10.38;5.15;;;4.20;35.10;;;;;;5043588;28;20379;-74
2023/03/09 11:21:13;;;;;;;9.65;5.30;;;4.20;39.00;;;;;;5076626;28;20376;-74
2023/03/09 11:23:53;;;;;;;10.85;4.53;;;4.10;27.60;;;;;;5087326;28;20537;-72
2023/03/09 11:26:46;;;;;;;7.22;4.15;;;6.50;26.40;;;;;;5060987;28;20032;-72
2023/03/09 11:29:42;;;;;;;11.13;4.85;;;4.20;30.50;;;;;;5077343;28;20200;-73
2023/03/09 11:32:14;;;;;;;7.15;3.90;;;4.30;33.10;;;;;;5060867;28;20043;-72
2023/03/09 11:34:44;;;;;;;9.93;4.45;;;4.40;31.70;;;;;;5077723;28;20043;-72
2023/03/09 11:38:04;;;;;;;7.63;4.18;;;4.50;38.30;;;;;;5077827;28;20028;-72
2023/03/09 11:41:00;;;;;;;8.45;5.00;;;4.60;28.60;;;;;;5077125;28;20131;-72
2023/03/09 11:43:46;;;;;;;7.53;4.00;;;4.60;6.60;;;;;;5077541;28;20499;-72
2023/03/09 11:46:52;;;;;;;8.73;4.70;;;4.70;13.30;;;;;;5077213;28;20047;-72
2023/03/09 11:49:47;;;;;;;8.57;5.22;;;4.60;1.00;;;;;;5077443;28;20126;-72
2023/03/09 11:52:47;;;;;;;8.70;4.85;;;4.60;1.00;;;;;;5077681;28;20168;-71
2023/03/09 11:55:22;;;;;;;8.77;4.70;;;4.60;1.00;;;;;;4999822;28;20072;-72
2023/03/09 11:58:00;;;;;;;9.10;5.13;;;4.50;1.00;;;;;;5073087;28;20054;-72
2023/03/09 12:00:48;;;;;;;10.73;5.00;;;4.60;1.00;;;;;;5077416;28;20039;-72
2023/03/09 12:03:39;;;;;;;8.05;4.63;;;4.50;1.00;;;;;;5060195;28;20036;-72
2023/03/09 12:06:50;;;;;;;9.85;4.75;;;4.40;1.00;;;;;;5076962;28;20040;-72
2023/03/09 12:09:34;;;;;;;9.00;4.85;;;4.40;1.00;;;;;;5059060;28;20101;-72
2023/03/09 12:12:44;;;;;;;;;;;;;;;;;;;;;
2023/03/09 12:15:37;;;;;;;8.43;4.53;;;4.30;1.00;;;;;;5076978;28;20040;-72
2023/03/09 12:18:23;;;;;;;8.27;4.32;;;3.30;1.00;;;;;;5076842;28;20055;-71
2023/03/09 12:21:08;;;;;;;7.68;4.55;;;4.30;1.00;;;;;;5076873;28;20546;-73
2023/03/09 12:23:34;;;;;;;8.50;4.70;;;4.30;1.90;;;;;;5059857;28;20047;-74
2023/03/09 12:26:33;;;;;;;10.18;5.35;;;4.30;1.00;;;;;;5076992;28;20040;-72
2023/03/09 12:29:24;;;;;;;12.23;6.20;;;4.30;9.50;;;;;;5070768;28;20044;-74
2023/03/09 12:32:24;;;;;;;10.32;4.65;;;4.40;1.00;;;;;;5076433;28;20051;-71
2023/03/09 12:34:54;;;;;;;11.13;5.72;;;4.40;1.00;;;;;;5076525;28;20044;-72
2023/03/09 12:37:39;;;;;;;8.60;4.50;;;4.40;1.00;;;;;;5076596;28;20040;-72
2023/03/09 12:40:41;;;;;;;9.10;5.18;;;4.40;1.00;;;;;;5059332;28;20426;-72
2023/03/09 12:43:14;;;;;;;10.25;5.43;;;4.50;1.00;;;;;;5076473;28;20394;-72
2023/03/09 12:45:48;;;;;;;12.90;5.57;;;4.50;1.00;;;;;;5076625;28;20540;-72
2023/03/09 12:48:49;;;;;;;10.70;5.15;;;4.50;1.00;;;;;;5076201;28;20044;-72
2023/03/09 12:51:34;;;;;;;10.70;5.45;;;4.60;1.00;;;;;;5064753;28;20052;-72
2023/03/09 12:54:22;;;;;;;12.43;5.55;;;4.70;1.00;;;;;;5077464;28;20044;-72
2023/03/09 12:56:52;;;;;;;;;;;4.60;1.00;;;;;;5077971;28;20124;-72
2023/03/09 12:59:28;;;;;;;10.73;4.97;;;4.80;1.00;;;;;;5077368;28;19923;-72
2023/03/09 13:01:57;;;;;;;9.75;5.35;;;4.80;1.00;;;;;;5076654;28;20130;-72
2023/03/09 13:04:30;;;;;;;8.95;4.72;;;5.00;1.00;;;;;;5076919;28;20105;-72
2023/03/09 13:07:22;;;;;;;9.32;5.28;;;4.70;1.00;;;;;;5076383;28;20046;-72
2023/03/09 13:10:17;;;;;;;9.07;5.10;;;4.60;1.00;;;;;;5092948;28;20411;-73
2023/03/09 13:12:55;;;;;;;9.07;4.60;;;4.40;1.00;;;;;;5075959;28;20604;-73
2023/03/09 13:15:27;;;;;;;11.05;4.68;;;4.60;1.00;;;;;;5059309;28;20045;-72
2023/03/09 13:18:16;;;;;;;9.75;5.75;;;4.70;1.00;;;;;;5075317;28;20101;-73
2023/03/09 13:20:43;;;;;;;8.80;5.18;;;2.30;1.00;;;;;;5075504;28;20543;-73
2023/03/09 13:23:19;;;;;;;10.85;5.18;;;4.40;1.00;;;;;;5092618;28;20040;-73
2023/03/09 13:25:50;;;;;;;10.80;5.30;;;4.50;1.00;;;;;;5075900;28;20380;-73
2023/03/09 13:29:11;;;;;;;10.82;4.85;;;4.50;1.00;;;;;;5059176;28;20487;-72
2023/03/09 13:31:41;;;;;;;8.00;5.07;;;4.50;1.00;;;;;;5072446;28;20051;-73
2023/03/09 13:34:19;;;;;;;9.38;5.45;;;4.40;1.00;;;;;;5075375;28;20044;-73
2023/03/09 13:36:49;;;;;;;7.80;4.55;;;4.40;1.00;;;;;;5058831;28;20121;-72
2023/03/09 13:39:24;;;;;;;13.02;6.00;;;4.50;1.00;;;;;;5059108;28;20535;-73
2023/03/09 13:42:05;;;;;;;12.45;5.32;;;4.40;1.00;;;;;;5055091;28;20048;-72
2023/03/09 13:44:32;;;;;;;12.38;5.00;;;4.40;1.00;;;;;;5072070;28;20052;-73
2023/03/09 13:47:03;;;;;;;9.70;5.20;;;4.40;1.00;;;;;;5055245;28;20090;-72
2023/03/09 13:49:37;;;;;;;7.00;4.35;;;4.30;1.00;;;;;;5072196;28;20580;-73
2023/03/09 13:52:22;;;;;;;10.35;5.43;;;4.20;1.00;;;;;;5072003;28;20518;-73
2023/03/09 13:55:27;;;;;;;12.70;5.63;;;4.30;1.00;;;;;;5088641;28;20071;-72
2023/03/09 13:58:25;;;;;;;12.35;5.72;;;4.30;1.00;;;;;;5072162;28;20045;-73
2023/03/09 14:01:19;;;;;;;11.70;5.68;;;4.30;1.00;;;;;;5073439;28;20036;-73
2023/03/09 14:03:53;;;;;;;10.07;6.05;;;4.20;1.00;;;;;;5055458;28;20040;-72
2023/03/09 14:06:55;;;;;;;8.02;4.55;;;4.10;1.00;;;;;;5071975;28;20125;-72